createdAt,value
2018-04-22T00:00:26.741Z,0
2018-04-22T00:01:35.572Z,0
2018-04-22T00:02:44.672Z,0
2018-04-22T00:03:53.505Z,0
2018-04-22T00:05:02.339Z,0
2018-04-22T00:06:11.169Z,0
2018-04-22T00:07:20.276Z,0
2018-04-22T00:08:29.384Z,0
2018-04-22T00:09:38.621Z,0
2018-04-22T00:10:47.450Z,0
2018-04-22T00:11:56.333Z,0
2018-04-22T00:13:05.166Z,0
2018-04-22T00:14:13.999Z,0
2018-04-22T00:15:22.831Z,0
2018-04-22T00:16:31.661Z,0
2018-04-22T00:17:40.495Z,0
2018-04-22T00:18:49.329Z,0
2018-04-22T00:19:58.162Z,0
2018-04-22T00:21:07.295Z,0
2018-04-22T00:22:16.127Z,0
2018-04-22T00:23:24.960Z,0
2018-04-22T00:24:33.792Z,0
2018-04-22T00:25:42.619Z,0
2018-04-22T00:26:51.753Z,0
2018-04-22T00:28:00.585Z,0
2018-04-22T00:29:09.422Z,0
2018-04-22T00:30:18.528Z,0
2018-04-22T00:31:27.364Z,0
2018-04-22T00:32:36.294Z,0
2018-04-22T00:33:45.121Z,0
2018-04-22T00:34:53.949Z,0
2018-04-22T00:36:03.059Z,0
2018-04-22T00:37:12.166Z,0
2018-04-22T00:38:21.980Z,0
2018-04-22T00:39:30.812Z,0
2018-04-22T00:40:39.643Z,0
2018-04-22T00:41:48.749Z,0
2018-04-22T00:42:57.582Z,0
2018-04-22T00:44:06.945Z,0
2018-04-22T00:45:15.777Z,0
2018-04-22T00:46:24.610Z,0
2018-04-22T00:47:33.441Z,0
2018-04-22T00:48:42.552Z,0
2018-04-22T00:49:51.485Z,0
2018-04-22T00:51:00.317Z,0
2018-04-22T00:52:09.151Z,0
2018-04-22T00:53:17.982Z,0
2018-04-22T00:54:26.820Z,0
2018-04-22T00:55:35.928Z,0
2018-04-22T00:56:44.758Z,0
2018-04-22T00:57:53.591Z,0
2018-04-22T00:59:02.422Z,0
2018-04-22T01:00:11.253Z,0
2018-04-22T01:01:20.237Z,0
2018-04-22T01:02:29.911Z,0
2018-04-22T01:03:38.733Z,0
2018-04-22T01:04:47.565Z,0
2018-04-22T01:05:56.397Z,0
2018-04-22T01:07:05.429Z,0
2018-04-22T01:08:14.535Z,0
2018-04-22T01:09:23.367Z,0
2018-04-22T01:10:32.197Z,0
2018-04-22T01:11:41.031Z,0
2018-04-22T01:12:50.188Z,0
2018-04-22T01:13:59.021Z,0
2018-04-22T01:15:07.850Z,0
2018-04-22T01:16:16.956Z,0
2018-04-22T01:17:26.058Z,0
2018-04-22T01:18:34.893Z,0
2018-04-22T01:19:44.272Z,0
2018-04-22T01:20:53.103Z,0
2018-04-22T01:22:01.936Z,0
2018-04-22T01:23:10.768Z,0
2018-04-22T01:24:19.603Z,0
2018-04-22T01:25:28.435Z,0
2018-04-22T01:26:37.269Z,0
2018-04-22T01:27:46.102Z,0
2018-04-22T01:28:54.932Z,0
2018-04-22T01:30:03.763Z,0
2018-04-22T01:31:12.870Z,0
2018-04-22T01:32:21.974Z,0
2018-04-22T01:33:31.084Z,0
2018-04-22T01:34:39.925Z,0
2018-04-22T01:35:49.128Z,0
2018-04-22T01:36:57.960Z,0
2018-04-22T01:38:06.788Z,0
2018-04-22T01:39:15.620Z,0
2018-04-22T01:40:24.728Z,0
2018-04-22T01:41:33.557Z,0
2018-04-22T01:42:42.389Z,0
2018-04-22T01:43:51.220Z,0
2018-04-22T01:45:00.052Z,0
2018-04-22T01:46:08.886Z,0
2018-04-22T01:47:18.297Z,0
2018-04-22T01:48:27.413Z,0
2018-04-22T01:49:36.242Z,0
2018-04-22T01:50:45.359Z,0
2018-04-22T01:51:54.452Z,0
2018-04-22T01:53:03.333Z,0
2018-04-22T01:54:12.165Z,0
2018-04-22T01:55:21.272Z,0
2018-04-22T01:56:30.104Z,0
2018-04-22T01:57:39.257Z,0
2018-04-22T01:58:48.188Z,0
2018-04-22T01:59:57.017Z,0
2018-04-22T02:01:05.848Z,0
2018-04-22T02:02:14.682Z,0
2018-04-22T02:03:23.514Z,0
2018-04-22T02:04:32.769Z,0
2018-04-22T02:05:41.604Z,0
2018-04-22T02:06:50.710Z,0
2018-04-22T02:07:59.541Z,0
2018-04-22T02:09:08.375Z,0
2018-04-22T02:10:17.310Z,0
2018-04-22T02:11:26.088Z,0
2018-04-22T02:12:34.915Z,0
2018-04-22T02:13:43.746Z,0
2018-04-22T02:14:52.579Z,0
2018-04-22T02:16:01.995Z,0
2018-04-22T02:17:11.103Z,0
2018-04-22T02:18:19.931Z,0
2018-04-22T02:19:28.764Z,0
2018-04-22T02:20:37.596Z,0
2018-04-22T02:21:46.585Z,0
2018-04-22T02:22:55.414Z,0
2018-04-22T02:24:04.837Z,0
2018-04-22T02:25:13.946Z,0
2018-04-22T02:26:22.774Z,0
2018-04-22T02:27:31.702Z,0
2018-04-22T02:28:40.811Z,0
2018-04-22T02:29:49.642Z,0
2018-04-22T02:30:58.476Z,0
2018-04-22T02:32:07.306Z,0
2018-04-22T02:33:16.411Z,0
2018-04-22T02:34:25.243Z,0
2018-04-22T02:35:34.351Z,0
2018-04-22T02:36:43.184Z,0
2018-04-22T02:37:52.015Z,0
2018-04-22T02:39:00.848Z,0
2018-04-22T02:40:10.515Z,0
2018-04-22T02:41:19.629Z,0
2018-04-22T02:42:28.463Z,0
2018-04-22T02:43:37.678Z,0
2018-04-22T02:44:46.805Z,0
2018-04-22T02:45:55.914Z,0
2018-04-22T02:47:04.748Z,0
2018-04-22T02:48:14.414Z,0
2018-04-22T02:49:23.238Z,0
2018-04-22T02:50:32.769Z,0
2018-04-22T02:51:41.883Z,0
2018-04-22T02:52:50.716Z,0
2018-04-22T02:53:59.828Z,0
2018-04-22T02:55:08.666Z,0
2018-04-22T02:56:17.697Z,0
2018-04-22T02:57:26.806Z,0
2018-04-22T02:58:35.640Z,0
2018-04-22T02:59:45.022Z,0
2018-04-22T03:00:54.131Z,0
2018-04-22T03:02:03.390Z,0
2018-04-22T03:03:12.219Z,0
2018-04-22T03:04:21.323Z,0
2018-04-22T03:05:30.153Z,0
2018-04-22T03:06:38.986Z,0
2018-04-22T03:07:48.202Z,0
2018-04-22T03:08:57.033Z,0
2018-04-22T03:10:05.862Z,0
2018-04-22T03:11:14.694Z,0
2018-04-22T03:12:23.800Z,0
2018-04-22T03:13:32.883Z,0
2018-04-22T03:14:41.715Z,0
2018-04-22T03:15:50.547Z,0
2018-04-22T03:16:59.381Z,0
2018-04-22T03:18:08.488Z,0
2018-04-22T03:19:17.469Z,0
2018-04-22T03:20:26.301Z,0
2018-04-22T03:21:35.404Z,0
2018-04-22T03:22:44.234Z,0
2018-04-22T03:23:53.070Z,0
2018-04-22T03:25:02.227Z,0
2018-04-22T03:26:11.057Z,0
2018-04-22T03:27:19.887Z,0
2018-04-22T03:28:28.720Z,0
2018-04-22T03:29:37.551Z,0
2018-04-22T03:31:18.540Z,0
2018-04-22T03:32:27.645Z,0
2018-04-22T03:33:36.478Z,0
2018-04-22T03:34:45.307Z,0
2018-04-22T03:35:54.139Z,0
2018-04-22T03:37:03.071Z,0
2018-04-22T03:38:11.904Z,0
2018-04-22T03:39:20.737Z,0
2018-04-22T03:40:29.570Z,4
2018-04-22T03:41:38.950Z,0
2018-04-22T03:42:47.929Z,0
2018-04-22T03:43:56.762Z,4
2018-04-22T03:45:05.868Z,4
2018-04-22T03:46:14.697Z,4
2018-04-22T03:47:23.532Z,8
2018-04-22T03:48:32.363Z,8
2018-04-22T03:49:41.193Z,8
2018-04-22T03:50:50.297Z,8
2018-04-22T03:51:59.136Z,8
2018-04-22T03:53:07.965Z,12
2018-04-22T03:54:17.122Z,16
2018-04-22T03:55:25.951Z,20
2018-04-22T03:56:34.783Z,20
2018-04-22T03:57:43.933Z,24
2018-04-22T03:58:52.765Z,28
2018-04-22T04:00:01.597Z,32
2018-04-22T04:01:10.433Z,36
2018-04-22T04:02:19.266Z,44
2018-04-22T04:03:28.097Z,48
2018-04-22T04:04:36.930Z,60
2018-04-22T04:05:46.061Z,64
2018-04-22T04:06:55.178Z,72
2018-04-22T04:08:04.016Z,80
2018-04-22T04:09:12.841Z,92
2018-04-22T04:10:21.672Z,104
2018-04-22T04:11:30.780Z,112
2018-04-22T04:12:39.610Z,124
2018-04-22T04:13:48.438Z,136
2018-04-22T04:14:57.272Z,148
2018-04-22T04:16:06.107Z,160
2018-04-22T04:17:15.038Z,176
2018-04-22T04:18:24.152Z,192
2018-04-22T04:19:32.982Z,204
2018-04-22T04:20:42.084Z,220
2018-04-22T04:21:50.915Z,236
2018-04-22T04:23:00.172Z,260
2018-04-22T04:24:09.278Z,276
2018-04-22T04:25:18.113Z,296
2018-04-22T04:26:27.218Z,320
2018-04-22T04:27:36.052Z,340
2018-04-22T04:28:45.239Z,364
2018-04-22T04:29:54.620Z,384
2018-04-22T04:31:03.453Z,408
2018-04-22T04:32:12.560Z,428
2018-04-22T04:33:21.394Z,448
2018-04-22T04:34:30.223Z,468
2018-04-22T04:35:39.057Z,492
2018-04-22T04:36:48.161Z,512
2018-04-22T04:37:57.276Z,532
2018-04-22T04:39:06.105Z,552
2018-04-22T04:40:15.274Z,568
2018-04-22T04:41:24.107Z,588
2018-04-22T04:42:32.941Z,608
2018-04-22T04:43:42.057Z,628
2018-04-22T04:44:50.884Z,652
2018-04-22T04:45:59.860Z,676
2018-04-22T04:47:08.689Z,696
2018-04-22T04:48:17.520Z,712
2018-04-22T04:49:26.622Z,732
2018-04-22T04:50:35.454Z,756
2018-04-22T04:51:44.866Z,788
2018-04-22T04:52:53.699Z,812
2018-04-22T04:54:02.529Z,832
2018-04-22T04:55:11.361Z,856
2018-04-22T04:56:20.188Z,876
2018-04-22T04:57:29.400Z,896
2018-04-22T04:58:38.229Z,916
2018-04-22T04:59:47.074Z,932
2018-04-22T05:00:56.180Z,952
2018-04-22T05:02:05.296Z,968
2018-04-22T05:03:14.217Z,988
2018-04-22T05:04:23.321Z,1008
2018-04-22T05:05:32.149Z,1020
2018-04-22T05:06:41.255Z,1040
2018-04-22T05:07:50.087Z,1060
2018-04-22T05:08:59.217Z,1072
2018-04-22T05:10:08.044Z,1084
2018-04-22T05:11:16.882Z,1088
2018-04-22T05:12:25.986Z,1052
2018-04-22T05:13:34.816Z,1068
2018-04-22T05:14:43.758Z,1124
2018-04-22T05:15:52.582Z,1156
2018-04-22T05:17:01.414Z,1180
2018-04-22T05:18:10.246Z,1200
2018-04-22T05:19:19.078Z,1216
2018-04-22T05:20:27.911Z,1236
2018-04-22T05:21:36.746Z,1252
2018-04-22T05:22:45.577Z,1268
2018-04-22T05:23:54.411Z,1288
2018-04-22T05:25:03.247Z,1304
2018-04-22T05:26:12.087Z,1324
2018-04-22T05:27:21.187Z,1344
2018-04-22T05:28:30.018Z,1368
2018-04-22T05:29:38.857Z,1388
2018-04-22T05:30:47.688Z,1420
2018-04-22T05:31:56.818Z,1456
2018-04-22T05:33:05.649Z,1496
2018-04-22T05:34:14.479Z,1540
2018-04-22T05:35:23.311Z,1588
2018-04-22T05:36:32.457Z,1620
2018-04-22T05:37:41.401Z,1648
2018-04-22T05:38:50.231Z,1660
2018-04-22T05:39:59.068Z,1688
2018-04-22T05:41:07.901Z,1708
2018-04-22T05:42:17.010Z,1736
2018-04-22T05:43:26.123Z,1744
2018-04-22T05:44:34.952Z,1752
2018-04-22T05:45:43.782Z,1732
2018-04-22T05:46:52.613Z,1704
2018-04-22T05:48:01.446Z,1696
2018-04-22T05:49:10.377Z,1680
2018-04-22T05:50:19.207Z,1660
2018-04-22T05:51:28.043Z,1640
2018-04-22T05:52:36.879Z,1628
2018-04-22T05:53:46.259Z,1604
2018-04-22T05:54:55.691Z,1596
2018-04-22T05:56:04.522Z,1592
2018-04-22T05:57:13.633Z,1592
2018-04-22T05:58:22.463Z,1604
2018-04-22T05:59:31.297Z,1612
2018-04-22T06:00:40.133Z,1612
2018-04-22T06:01:48.966Z,1636
2018-04-22T06:02:57.795Z,1664
2018-04-22T06:04:06.630Z,1692
2018-04-22T06:05:15.461Z,1712
2018-04-22T06:06:24.446Z,1740
2018-04-22T06:07:33.280Z,1772
2018-04-22T06:08:42.112Z,1804
2018-04-22T06:09:50.946Z,1844
2018-04-22T06:11:00.053Z,1872
2018-04-22T06:12:09.417Z,1900
2018-04-22T06:13:18.249Z,1932
2018-04-22T06:14:27.085Z,1956
2018-04-22T06:15:36.196Z,1984
2018-04-22T06:16:45.029Z,2004
2018-04-22T06:17:53.909Z,2008
2018-04-22T06:19:02.743Z,2008
2018-04-22T06:20:11.851Z,2016
2018-04-22T06:21:20.683Z,2036
2018-04-22T06:22:29.794Z,2064
2018-04-22T06:23:38.949Z,2072
2018-04-22T06:24:48.057Z,2076
2018-04-22T06:25:56.891Z,2088
2018-04-22T06:27:05.729Z,2132
2018-04-22T06:28:14.888Z,2188
2018-04-22T06:29:23.767Z,2264
2018-04-22T06:30:32.605Z,2360
2018-04-22T06:31:41.438Z,2444
2018-04-22T06:32:50.542Z,2504
2018-04-22T06:33:59.375Z,2548
2018-04-22T06:35:08.583Z,2624
2018-04-22T06:36:17.415Z,2668
2018-04-22T06:37:26.248Z,2720
2018-04-22T06:38:35.082Z,2808
2018-04-22T06:39:43.917Z,2872
2018-04-22T06:40:52.747Z,2884
2018-04-22T06:42:01.581Z,2896
2018-04-22T06:43:10.691Z,2932
2018-04-22T06:44:19.522Z,2904
2018-04-22T06:45:28.353Z,2892
2018-04-22T06:46:37.238Z,3140
2018-04-22T06:47:46.072Z,3164
2018-04-22T06:48:54.907Z,3148
2018-04-22T06:50:03.740Z,3140
2018-04-22T06:51:12.863Z,3104
2018-04-22T06:52:21.745Z,3056
2018-04-22T06:53:30.602Z,3104
2018-04-22T06:54:39.413Z,3096
2018-04-22T06:55:48.522Z,3036
2018-04-22T06:56:57.354Z,2928
2018-04-22T06:58:06.575Z,2776
2018-04-22T06:59:15.409Z,2672
2018-04-22T07:00:24.524Z,2632
2018-04-22T07:01:33.355Z,2536
2018-04-22T07:02:42.189Z,2504
2018-04-22T07:03:51.021Z,2480
2018-04-22T07:04:59.860Z,2436
2018-04-22T07:06:08.694Z,2468
2018-04-22T07:07:17.525Z,2520
2018-04-22T07:08:26.633Z,2568
2018-04-22T07:09:35.570Z,2572
2018-04-22T07:10:44.406Z,2520
2018-04-22T07:11:53.515Z,2468
2018-04-22T07:13:02.351Z,2388
2018-04-22T07:14:11.739Z,2312
2018-04-22T07:15:20.725Z,2284
2018-04-22T07:16:29.832Z,2212
2018-04-22T07:17:38.668Z,2120
2018-04-22T07:18:47.502Z,2032
2018-04-22T07:19:56.334Z,1944
2018-04-22T07:21:05.595Z,1844
2018-04-22T07:22:14.428Z,1760
2018-04-22T07:23:23.264Z,1756
2018-04-22T07:24:32.100Z,1784
2018-04-22T07:25:41.484Z,1756
2018-04-22T07:26:50.748Z,1736
2018-04-22T07:27:59.580Z,1736
2018-04-22T07:29:08.971Z,1776
2018-04-22T07:30:18.078Z,1776
2018-04-22T07:31:26.913Z,1840
2018-04-22T07:32:36.134Z,1908
2018-04-22T07:33:45.251Z,1932
2018-04-22T07:34:54.088Z,1956
2018-04-22T07:36:02.920Z,1980
2018-04-22T07:37:11.761Z,2008
2018-04-22T07:38:20.891Z,2028
2018-04-22T07:39:29.726Z,2064
2018-04-22T07:40:38.629Z,2104
2018-04-22T07:41:47.395Z,2124
2018-04-22T07:42:56.229Z,2180
2018-04-22T07:44:05.162Z,2240
2018-04-22T07:45:13.998Z,2288
2018-04-22T07:46:22.832Z,2356
2018-04-22T07:47:31.667Z,2420
2018-04-22T07:48:40.502Z,2484
2018-04-22T07:49:49.487Z,2528
2018-04-22T07:50:58.320Z,2544
2018-04-22T07:52:07.153Z,2544
2018-04-22T07:53:15.987Z,2584
2018-04-22T07:54:25.108Z,2580
2018-04-22T07:55:34.233Z,2584
2018-04-22T07:56:43.117Z,2624
2018-04-22T07:57:51.959Z,2624
2018-04-22T07:59:00.788Z,2612
2018-04-22T08:00:09.627Z,2572
2018-04-22T08:01:18.560Z,2568
2018-04-22T08:02:27.396Z,2548
2018-04-22T08:03:36.233Z,2532
2018-04-22T08:04:45.068Z,2508
2018-04-22T08:05:54.178Z,2504
2018-04-22T08:07:03.166Z,2508
2018-04-22T08:08:12.002Z,2520
2018-04-22T08:09:20.838Z,2504
2018-04-22T08:10:29.675Z,2476
2018-04-22T08:11:38.514Z,2420
2018-04-22T08:12:47.622Z,2332
2018-04-22T08:13:56.454Z,2304
2018-04-22T08:15:05.564Z,2368
2018-04-22T08:16:14.407Z,2384
2018-04-22T08:17:23.572Z,2340
2018-04-22T08:18:32.462Z,2360
2018-04-22T08:19:41.574Z,2376
2018-04-22T08:20:50.410Z,2368
2018-04-22T08:21:59.242Z,2344
2018-04-22T08:23:08.352Z,2296
2018-04-22T08:24:17.566Z,2280
2018-04-22T08:25:26.676Z,2288
2018-04-22T08:26:35.536Z,2332
2018-04-22T08:27:44.659Z,2360
2018-04-22T08:28:53.797Z,2380
2018-04-22T08:30:02.743Z,2412
2018-04-22T08:31:11.859Z,2492
2018-04-22T08:32:20.965Z,2580
2018-04-22T08:33:29.800Z,2680
2018-04-22T08:34:38.637Z,2756
2018-04-22T08:35:47.473Z,2824
2018-04-22T08:36:56.311Z,2928
2018-04-22T08:38:05.146Z,3044
2018-04-22T08:39:13.982Z,3156
2018-04-22T08:40:22.816Z,3312
2018-04-22T08:41:31.953Z,3496
2018-04-22T08:42:40.791Z,3600
2018-04-22T08:43:49.898Z,3612
2018-04-22T08:44:58.739Z,3508
2018-04-22T08:46:07.570Z,3280
2018-04-22T08:47:16.410Z,3084
2018-04-22T08:48:25.245Z,2984
2018-04-22T08:49:34.079Z,2932
2018-04-22T08:50:42.967Z,2916
2018-04-22T08:51:51.755Z,2824
2018-04-22T08:53:01.245Z,3056
2018-04-22T08:54:10.086Z,3308
2018-04-22T08:55:18.927Z,3420
2018-04-22T08:56:27.765Z,3608
2018-04-22T08:57:36.603Z,3920
2018-04-22T08:58:45.738Z,4332
2018-04-22T08:59:54.860Z,4716
2018-04-22T09:01:03.709Z,5252
2018-04-22T09:02:12.895Z,5992
2018-04-22T09:03:22.014Z,6760
2018-04-22T09:04:31.162Z,7332
2018-04-22T09:05:40.005Z,7356
2018-04-22T09:06:48.850Z,7132
2018-04-22T09:07:57.697Z,7020
2018-04-22T09:09:06.545Z,7164
2018-04-22T09:10:15.833Z,7348
2018-04-22T09:11:24.956Z,7292
2018-04-22T09:12:33.806Z,6648
2018-04-22T09:13:42.654Z,6320
2018-04-22T09:14:51.502Z,6100
2018-04-22T09:16:00.502Z,5600
2018-04-22T09:17:09.354Z,5412
2018-04-22T09:18:18.203Z,5336
2018-04-22T09:19:27.052Z,4832
2018-04-22T09:20:35.902Z,4256
2018-04-22T09:21:45.074Z,4180
2018-04-22T09:22:53.925Z,4428
2018-04-22T09:24:02.771Z,4388
2018-04-22T09:25:11.619Z,4488
2018-04-22T09:26:20.464Z,4416
2018-04-22T09:27:29.457Z,4652
2018-04-22T09:28:38.577Z,4984
2018-04-22T09:29:47.415Z,5168
2018-04-22T09:30:56.299Z,5344
2018-04-22T09:32:05.139Z,5448
2018-04-22T09:33:13.985Z,5580
2018-04-22T09:34:22.811Z,5716
2018-04-22T09:35:31.646Z,5840
2018-04-22T09:36:40.483Z,6112
2018-04-22T09:37:49.325Z,6568
2018-04-22T09:38:58.470Z,7420
2018-04-22T09:40:07.316Z,8540
2018-04-22T09:41:16.428Z,9872
2018-04-22T09:42:25.267Z,10868
2018-04-22T09:43:34.632Z,11476
2018-04-22T09:44:43.581Z,11440
2018-04-22T09:45:53.005Z,11332
2018-04-22T09:47:01.874Z,11532
2018-04-22T09:48:10.715Z,11764
2018-04-22T09:49:19.553Z,11684
2018-04-22T09:50:58.152Z,10908
2018-04-22T09:52:06.990Z,10728
2018-04-22T09:53:15.830Z,10840
2018-04-22T09:54:24.668Z,11600
2018-04-22T09:55:33.506Z,12652
2018-04-22T09:56:42.348Z,13152
2018-04-22T09:57:51.468Z,13644
2018-04-22T09:59:00.307Z,13920
2018-04-22T10:00:09.147Z,13360
2018-04-22T10:01:18.082Z,12704
2018-04-22T10:02:26.923Z,12124
2018-04-22T10:03:35.761Z,11152
2018-04-22T10:04:44.599Z,10356
2018-04-22T10:05:53.441Z,9428
2018-04-22T10:07:02.279Z,8836
2018-04-22T10:08:11.491Z,8692
2018-04-22T10:09:20.609Z,8664
2018-04-22T10:10:29.445Z,8884
2018-04-22T10:11:38.286Z,9332
2018-04-22T10:12:47.125Z,9364
2018-04-22T10:13:56.015Z,9376
2018-04-22T10:15:04.855Z,9908
2018-04-22T10:16:14.243Z,10756
2018-04-22T10:17:23.091Z,11188
2018-04-22T10:18:32.072Z,10396
2018-04-22T10:19:40.910Z,9012
2018-04-22T10:20:49.752Z,7420
2018-04-22T10:21:58.957Z,6012
2018-04-22T10:23:07.998Z,5244
2018-04-22T10:24:16.988Z,4760
2018-04-22T10:25:25.826Z,5196
2018-04-22T10:26:34.665Z,6024
2018-04-22T10:27:44.095Z,6696
2018-04-22T10:28:53.607Z,7448
2018-04-22T10:30:02.449Z,8132
2018-04-22T10:31:11.564Z,8304
2018-04-22T10:32:20.679Z,7876
2018-04-22T10:33:29.521Z,7452
2018-04-22T10:34:38.372Z,8548
2018-04-22T10:35:47.503Z,10700
2018-04-22T10:36:56.621Z,12496
2018-04-22T10:38:05.737Z,13960
2018-04-22T10:39:14.579Z,14164
2018-04-22T10:40:23.417Z,12740
2018-04-22T10:41:32.358Z,11264
2018-04-22T10:42:41.198Z,10668
2018-04-22T10:43:50.058Z,10288
2018-04-22T10:44:58.876Z,10060
2018-04-22T10:46:07.716Z,9980
2018-04-22T10:47:17.103Z,10056
2018-04-22T10:48:25.943Z,10156
2018-04-22T10:49:34.783Z,10256
2018-04-22T10:50:43.687Z,10456
2018-04-22T10:51:52.586Z,10700
2018-04-22T10:53:01.471Z,10812
2018-04-22T10:54:10.353Z,10792
2018-04-22T10:55:19.200Z,10568
2018-04-22T10:56:28.043Z,10260
2018-04-22T10:57:36.890Z,10024
2018-04-22T10:58:46.008Z,9808
2018-04-22T10:59:54.913Z,9608
2018-04-22T11:01:03.963Z,9460
2018-04-22T11:02:13.356Z,9308
2018-04-22T11:03:22.193Z,9212
2018-04-22T11:04:31.033Z,9180
2018-04-22T11:05:40.199Z,9208
2018-04-22T11:06:49.041Z,9304
2018-04-22T11:07:58.154Z,9488
2018-04-22T11:09:06.998Z,9632
2018-04-22T11:10:15.836Z,9716
2018-04-22T11:11:24.677Z,9868
2018-04-22T11:12:33.517Z,9988
2018-04-22T11:13:42.356Z,9924
2018-04-22T11:14:51.473Z,9940
2018-04-22T11:16:00.310Z,10016
2018-04-22T11:17:09.183Z,10184
2018-04-22T11:18:18.303Z,10344
2018-04-22T11:19:27.141Z,10484
2018-04-22T11:20:35.986Z,10668
2018-04-22T11:21:44.827Z,11092
2018-04-22T11:22:53.946Z,11408
2018-04-22T11:24:02.936Z,12624
2018-04-22T11:25:12.053Z,12724
2018-04-22T11:26:20.891Z,12756
2018-04-22T11:27:29.730Z,13656
2018-04-22T11:28:38.572Z,14988
2018-04-22T11:29:47.713Z,15920
2018-04-22T11:30:56.560Z,15160
2018-04-22T11:32:05.684Z,14112
2018-04-22T11:33:14.526Z,13808
2018-04-22T11:34:23.367Z,13700
2018-04-22T11:35:32.211Z,13864
2018-04-22T11:36:41.329Z,13752
2018-04-22T11:37:50.170Z,14072
2018-04-22T11:38:59.012Z,14448
2018-04-22T11:40:07.859Z,13612
2018-04-22T11:41:16.896Z,13348
2018-04-22T11:42:25.737Z,12640
2018-04-22T11:43:34.580Z,12224
2018-04-22T11:44:43.420Z,11892
2018-04-22T11:45:52.260Z,11744
2018-04-22T11:47:01.251Z,11644
2018-04-22T11:48:10.102Z,11548
2018-04-22T11:49:18.930Z,11584
2018-04-22T11:50:27.776Z,11740
2018-04-22T11:51:36.613Z,11652
2018-04-22T11:52:45.780Z,11668
2018-04-22T11:53:54.618Z,11888
2018-04-22T11:55:03.462Z,17280
2018-04-22T11:56:12.580Z,34496
2018-04-22T11:57:21.697Z,18368
2018-04-22T11:58:30.687Z,15168
2018-04-22T11:59:39.530Z,15248
2018-04-22T12:00:48.367Z,15948
2018-04-22T12:01:57.213Z,20064
2018-04-22T12:03:06.055Z,44736
2018-04-22T12:04:15.196Z,53792
2018-04-22T12:05:24.314Z,58080
2018-04-22T12:06:33.500Z,57760
2018-04-22T12:07:43.026Z,55168
2018-04-22T12:08:51.880Z,56480
2018-04-22T12:10:00.716Z,53088
2018-04-22T12:11:09.566Z,38560
2018-04-22T12:12:18.411Z,34816
2018-04-22T12:13:27.258Z,44128
2018-04-22T12:14:36.138Z,57696
2018-04-22T12:15:44.947Z,58112
2018-04-22T12:16:53.795Z,52896
2018-04-22T12:18:02.639Z,46784
2018-04-22T12:19:11.486Z,59744
2018-04-22T12:20:20.329Z,55392
2018-04-22T12:21:29.342Z,55520
2018-04-22T12:22:38.462Z,57440
2018-04-22T12:23:47.307Z,58848
2018-04-22T12:24:56.152Z,60864
2018-04-22T12:26:05.007Z,61312
2018-04-22T12:27:14.005Z,58048
2018-04-22T12:28:22.848Z,63968
2018-04-22T12:29:31.973Z,64992
2018-04-22T12:30:41.092Z,61536
2018-04-22T12:31:49.998Z,37920
2018-04-22T12:32:58.900Z,41568
2018-04-22T12:34:08.031Z,38368
2018-04-22T12:35:16.893Z,51136
2018-04-22T12:36:26.035Z,48288
2018-04-22T12:37:34.882Z,44608
2018-04-22T12:38:43.781Z,40448
2018-04-22T12:39:52.629Z,34880
2018-04-22T12:41:01.491Z,61920
2018-04-22T12:42:10.351Z,62048
2018-04-22T12:43:19.198Z,62240
2018-04-22T12:44:28.145Z,60416
2018-04-22T12:45:36.992Z,52832
2018-04-22T12:46:46.126Z,43072
2018-04-22T12:47:55.313Z,42304
2018-04-22T12:49:04.506Z,33952
2018-04-22T12:50:13.457Z,24672
2018-04-22T12:51:22.304Z,20096
2018-04-22T12:52:31.151Z,23776
2018-04-22T12:53:40.001Z,40800
2018-04-22T12:54:48.848Z,48352
2018-04-22T12:55:57.795Z,40000
2018-04-22T12:57:06.654Z,32832
2018-04-22T12:58:15.531Z,32256
2018-04-22T12:59:25.090Z,29760
2018-04-22T13:00:33.936Z,32480
2018-04-22T13:01:42.841Z,16000
2018-04-22T13:02:51.691Z,37920
2018-04-22T13:04:00.538Z,39648
2018-04-22T13:05:09.385Z,58080
2018-04-22T13:06:18.510Z,62624
2018-04-22T13:07:27.410Z,50336
2018-04-22T13:08:36.257Z,27840
2018-04-22T13:09:45.103Z,28000
2018-04-22T13:10:53.953Z,28000
2018-04-22T13:12:02.806Z,38464
2018-04-22T13:13:12.216Z,34528
2018-04-22T13:14:21.070Z,28544
2018-04-22T13:15:30.465Z,29184
2018-04-22T13:16:39.319Z,37088
2018-04-22T13:17:48.168Z,31872
2018-04-22T13:18:57.012Z,35968
2018-04-22T13:20:05.861Z,40768
2018-04-22T13:21:14.707Z,35648
2018-04-22T13:22:23.553Z,30208
2018-04-22T13:23:32.974Z,42112
2018-04-22T13:24:42.135Z,33760
2018-04-22T13:25:51.610Z,52704
2018-04-22T13:27:00.457Z,61216
2018-04-22T13:28:09.305Z,52320
2018-04-22T13:29:18.431Z,40288
2018-04-22T13:30:27.276Z,27296
2018-04-22T13:31:36.132Z,40224
2018-04-22T13:32:45.257Z,46880
2018-04-22T13:33:54.383Z,47488
2018-04-22T13:35:03.230Z,18624
2018-04-22T13:36:12.133Z,16760
2018-04-22T13:37:20.978Z,18592
2018-04-22T13:38:29.822Z,26944
2018-04-22T13:39:38.669Z,28064
2018-04-22T13:40:47.515Z,50688
2018-04-22T13:41:56.469Z,64448
2018-04-22T13:43:05.318Z,64992
2018-04-22T13:44:14.168Z,66688
2018-04-22T13:45:23.013Z,64416
2018-04-22T13:46:31.863Z,64992
2018-04-22T13:47:41.149Z,54656
2018-04-22T13:48:49.994Z,33728
2018-04-22T13:49:59.126Z,42464
2018-04-22T13:51:08.245Z,49888
2018-04-22T13:52:17.092Z,27904
2018-04-22T13:53:25.994Z,50720
2018-04-22T13:54:34.845Z,66400
2018-04-22T13:55:43.975Z,64992
2018-04-22T13:56:52.818Z,64000
2018-04-22T13:58:01.667Z,63360
2018-04-22T13:59:10.667Z,65248
2018-04-22T14:00:19.799Z,64128
2018-04-22T14:01:28.924Z,64032
2018-04-22T14:02:37.774Z,63872
2018-04-22T14:03:46.630Z,62976
2018-04-22T14:04:55.522Z,64608
2018-04-22T14:06:04.372Z,64096
2018-04-22T14:07:13.498Z,64928
2018-04-22T14:08:22.632Z,61312
2018-04-22T14:09:31.483Z,60064
2018-04-22T14:10:40.589Z,59104
2018-04-22T14:11:49.438Z,61472
2018-04-22T14:12:58.293Z,59424
2018-04-22T14:14:07.141Z,59488
2018-04-22T14:15:16.269Z,60960
2018-04-22T14:16:25.120Z,61856
2018-04-22T14:17:33.977Z,61376
2018-04-22T14:18:42.829Z,59968
2018-04-22T14:19:52.384Z,60448
2018-04-22T14:21:01.209Z,62624
2018-04-22T14:22:10.111Z,61152
2018-04-22T14:23:18.962Z,58176
2018-04-22T14:24:27.815Z,57824
2018-04-22T14:25:36.767Z,56800
2018-04-22T14:26:45.619Z,57792
2018-04-22T14:27:54.524Z,61600
2018-04-22T14:29:03.956Z,60160
2018-04-22T14:30:12.809Z,58464
2018-04-22T14:31:21.661Z,57824
2018-04-22T14:32:30.515Z,57184
2018-04-22T14:33:39.668Z,57088
2018-04-22T14:34:48.524Z,55904
2018-04-22T14:35:57.654Z,57344
2018-04-22T14:37:06.510Z,56416
2018-04-22T14:38:15.369Z,47840
2018-04-22T14:39:24.503Z,51776
2018-04-22T14:40:33.648Z,43104
2018-04-22T14:41:42.511Z,49184
2018-04-22T14:42:51.368Z,55168
2018-04-22T14:44:00.273Z,54720
2018-04-22T14:45:09.407Z,53760
2018-04-22T14:46:18.270Z,54720
2018-04-22T14:47:27.404Z,54720
2018-04-22T14:48:36.258Z,55296
2018-04-22T14:49:45.113Z,56544
2018-04-22T14:50:54.352Z,55200
2018-04-22T14:52:03.210Z,54784
2018-04-22T14:53:12.064Z,54400
2018-04-22T14:54:20.916Z,55360
2018-04-22T14:55:30.050Z,56960
2018-04-22T14:56:38.903Z,55200
2018-04-22T14:57:47.808Z,53280
2018-04-22T14:58:57.262Z,51456
2018-04-22T15:00:06.395Z,52640
2018-04-22T15:01:15.248Z,52000
2018-04-22T15:02:24.102Z,51840
2018-04-22T15:03:33.233Z,51520
2018-04-22T15:04:42.184Z,51776
2018-04-22T15:05:51.036Z,51008
2018-04-22T15:06:59.892Z,48992
2018-04-22T15:08:09.024Z,49184
2018-04-22T15:09:17.877Z,49152
2018-04-22T15:10:27.032Z,46944
2018-04-22T15:11:35.885Z,46784
2018-04-22T15:12:45.015Z,47328
2018-04-22T15:13:53.865Z,48160
2018-04-22T15:15:02.720Z,46688
2018-04-22T15:16:11.877Z,44192
2018-04-22T15:17:20.729Z,44096
2018-04-22T15:18:29.584Z,45408
2018-04-22T15:19:38.439Z,44192
2018-04-22T15:20:47.575Z,43072
2018-04-22T15:21:56.526Z,43456
2018-04-22T15:23:05.381Z,43840
2018-04-22T15:24:14.272Z,44576
2018-04-22T15:25:23.680Z,42816
2018-04-22T15:26:32.535Z,42208
2018-04-22T15:27:41.489Z,42720
2018-04-22T15:28:50.343Z,43040
2018-04-22T15:29:59.195Z,44032
2018-04-22T15:31:08.074Z,43168
2018-04-22T15:32:17.545Z,43776
2018-04-22T15:33:26.728Z,42912
2018-04-22T15:34:35.581Z,40480